Mauriceville, Texas
Current Conditions -  °F | °C
As of 6:15 PM on Friday 21 Nov 2014 (Local Time) from KORG Reporting Station
Broken Clouds Broken Clouds  
Wind Chill: 64°   Ceiling: 10000
Heat Index: 64°   Visibility: 10mi
Dew Point: 56°   Wind: 12mph
Humidity: 75%   Direction: 110°ESE
Pressure: 30.18"   Gusts: 20mph
Location:  30.2°N, 93.87°W
Report Text: KORG 220015Z AUTO 11010G17KT 10SM SCT048 BKN100 BKN120 18/13 A3018 RMK AO2 T01760131
Loading
Personal Weather Stations






























Interactive Weather Map New forecast layout! Learn more

10-Day Weather Forecast

Advertisements
Track Severe Weather on mobile